EFSI/SJY METAR and TAF weather

Enter ICAO airport designator
Station Type Date Time Source
EFSI METAR 2021/09/23 18:50 UTC NOAA

EFSI 231850Z AUTO 12015G25KT 9999 -RA BKN024 07/04 Q0991


Station Type Date Time Source
EFSI Decoded METAR 2021/09/23 18:50 UTC NOAA

Seinajoki-Ilmajok, Finland (EFSI) 62-41-37N 022-49-55E
Sep 23, 2021 - 02:50 PM EDT / 2021.09.23 1850 UTC
Wind: from the ESE (120 degrees) at 17 MPH (15 KT) gusting to 29 MPH (25 KT):0
Visibility: greater than 7 mile(s):0
Sky conditions: mostly cloudy
Weather: light rain
Temperature: 44 F (7 C)
Dew Point: 39 F (4 C)
Relative Humidity: 81%
Pressure (altimeter): 29.26 in. Hg (0991 hPa)
ob: EFSI 231850Z AUTO 12015G25KT 9999 -RA BKN024 07/04 Q0991
cycle: 19

Station Type Date Time Source
EFSI TAF 2012/03/06 09:42 UTC NOAA

TAF EFSI 060830Z 0609/0621 12003KT CAVOK

Example: see airport list